createdAt,value
2023-05-10T00:00:36.624Z,3.10
2023-05-10T00:05:39.416Z,3.50
2023-05-10T00:10:43.665Z,3.53
2023-05-10T00:15:46.380Z,3.70
2023-05-10T00:20:49.785Z,3.80
2023-05-10T00:25:54.069Z,3.22
2023-05-10T00:30:56.891Z,3.83
2023-05-10T00:35:59.700Z,3.58
2023-05-10T00:41:05.106Z,3.75
2023-05-10T00:46:10.688Z,3.38
2023-05-10T00:51:15.277Z,3.70
2023-05-10T00:56:21.442Z,3.40
2023-05-10T01:01:24.290Z,3.88
2023-05-10T01:06:28.716Z,3.90
2023-05-10T01:11:32.925Z,4.20
2023-05-10T01:16:42.349Z,3.60
2023-05-10T01:21:55.205Z,3.90
2023-05-10T01:27:27.283Z,3.75
2023-05-10T01:32:37.928Z,3.70
2023-05-10T01:37:46.390Z,3.80
2023-05-10T01:42:53.669Z,3.80
2023-05-10T01:48:06.470Z,4.32
2023-05-10T01:53:12.135Z,3.80
2023-05-10T01:58:17.431Z,3.85
2023-05-10T02:03:24.182Z,3.75
2023-05-10T02:08:28.307Z,3.90
2023-05-10T02:13:34.129Z,4.30
2023-05-10T02:18:38.636Z,4.28
2023-05-10T02:23:42.125Z,4.60
2023-05-10T02:28:45.928Z,4.30
2023-05-10T02:33:51.001Z,4.35
2023-05-10T02:38:55.683Z,4.28
2023-05-10T02:44:03.613Z,4.15
2023-05-10T02:49:07.844Z,4.00
2023-05-10T02:54:14.556Z,4.22
2023-05-10T02:59:17.324Z,4.40
2023-05-10T03:04:21.581Z,4.20
2023-05-10T03:09:25.743Z,4.10
2023-05-10T03:14:44.293Z,4.63
2023-05-10T03:19:55.272Z,4.10
2023-05-10T03:25:00.486Z,4.50
2023-05-10T03:30:09.465Z,4.00
2023-05-10T03:35:15.252Z,4.40
2023-05-10T03:40:18.550Z,4.28
2023-05-10T03:45:21.771Z,4.35
2023-05-10T03:50:27.142Z,4.20
2023-05-10T03:55:30.498Z,3.97
2023-05-10T04:00:33.860Z,5.10
2023-05-10T04:05:38.741Z,4.28
2023-05-10T04:10:41.630Z,4.13
2023-05-10T04:15:44.711Z,4.35
2023-05-10T04:20:48.798Z,3.90
2023-05-10T04:25:52.008Z,4.05
2023-05-10T04:30:54.915Z,4.28
2023-05-10T04:36:00.974Z,4.53
2023-05-10T04:41:07.953Z,4.45
2023-05-10T04:46:10.834Z,4.20
2023-05-10T04:51:15.036Z,4.15
2023-05-10T04:56:18.049Z,4.38
2023-05-10T05:01:20.850Z,4.50
2023-05-10T05:06:25.892Z,4.60
2023-05-10T05:11:28.612Z,4.20
2023-05-10T05:16:33.049Z,4.10
2023-05-10T05:21:37.201Z,3.83
2023-05-10T05:26:39.938Z,4.45
2023-05-10T05:31:42.681Z,4.50
2023-05-10T05:36:47.125Z,4.40
2023-05-10T05:41:49.908Z,5.38
2023-05-10T05:46:52.701Z,4.28
2023-05-10T05:52:01.057Z,4.78
2023-05-10T05:57:03.859Z,4.47
2023-05-10T06:02:07.381Z,4.25
2023-05-10T06:07:11.535Z,4.10
2023-05-10T06:12:14.331Z,4.53
2023-05-10T06:17:17.305Z,4.30
2023-05-10T06:22:23.540Z,4.20
2023-05-10T06:27:26.893Z,3.92
2023-05-10T06:32:29.790Z,4.03
2023-05-10T06:37:34.178Z,4.55
2023-05-10T06:42:36.939Z,4.35
2023-05-10T06:47:39.910Z,3.95
2023-05-10T06:52:44.516Z,5.03
2023-05-10T06:57:47.228Z,4.30
2023-05-10T07:02:50.086Z,4.65
2023-05-10T07:07:54.260Z,4.57
2023-05-10T07:12:57.146Z,4.50
2023-05-10T07:18:00.175Z,4.22
2023-05-10T07:23:04.491Z,4.00
2023-05-10T07:28:07.312Z,4.47
2023-05-10T07:33:10.952Z,4.05
2023-05-10T07:38:16.249Z,4.07
2023-05-10T07:43:19.135Z,4.22
2023-05-10T07:48:21.938Z,4.10
2023-05-10T07:53:27.103Z,4.15
2023-05-10T07:58:30.048Z,4.53
2023-05-10T08:03:32.854Z,4.10
2023-05-10T08:08:37.032Z,4.03
2023-05-10T08:13:39.927Z,4.25
2023-05-10T08:18:42.818Z,4.40
2023-05-10T08:23:47.018Z,4.05
2023-05-10T08:28:49.864Z,4.32
2023-05-10T08:33:53.590Z,4.47
2023-05-10T08:38:57.824Z,4.43
2023-05-10T08:44:02.491Z,4.60
2023-05-10T08:49:06.609Z,4.20
2023-05-10T08:54:11.433Z,4.82
2023-05-10T08:59:15.153Z,4.70
2023-05-10T09:04:18.668Z,5.20
2023-05-10T09:09:23.750Z,5.55
2023-05-10T09:14:27.047Z,5.28
2023-05-10T09:19:30.177Z,5.25
2023-05-10T09:24:34.333Z,5.18
2023-05-10T09:29:44.831Z,5.15
2023-05-10T09:34:52.002Z,5.72
2023-05-10T09:39:56.454Z,4.97
2023-05-10T09:45:02.880Z,5.88
2023-05-10T09:50:06.631Z,6.00
2023-05-10T09:55:11.616Z,5.70
2023-05-10T10:00:21.041Z,6.97
2023-05-10T10:05:30.383Z,5.93
2023-05-10T10:10:35.824Z,5.82
2023-05-10T10:15:39.058Z,5.80
2023-05-10T10:20:42.360Z,6.75
2023-05-10T10:25:49.285Z,6.55
2023-05-10T10:30:56.295Z,7.28
2023-05-10T10:36:02.148Z,6.70
2023-05-10T10:41:11.433Z,6.90
2023-05-10T10:46:15.555Z,7.55
2023-05-10T10:51:18.665Z,8.20
2023-05-10T10:56:25.232Z,7.70
2023-05-10T11:01:35.282Z,7.45
2023-05-10T11:06:41.480Z,7.43
2023-05-10T11:11:56.120Z,8.27
2023-05-10T11:16:59.309Z,8.88
2023-05-10T11:22:15.536Z,8.32
2023-05-10T11:27:20.642Z,7.85
2023-05-10T11:32:24.108Z,8.50
2023-05-10T11:37:33.276Z,8.57
2023-05-10T11:42:39.097Z,7.88
2023-05-10T11:47:44.238Z,8.60
2023-05-10T11:52:47.399Z,8.82
2023-05-10T11:57:54.150Z,8.63
2023-05-10T12:02:57.173Z,8.27
2023-05-10T12:08:13.388Z,7.65
2023-05-10T12:13:17.683Z,7.50
2023-05-10T12:18:25.877Z,8.88
2023-05-10T12:23:28.752Z,7.85
2023-05-10T12:28:34.328Z,7.32
2023-05-10T12:33:42.684Z,6.82
2023-05-10T12:38:49.034Z,6.97
2023-05-10T12:43:53.613Z,5.13
2023-05-10T12:49:08.016Z,7.68
2023-05-10T12:54:12.357Z,6.55
2023-05-10T12:59:16.583Z,6.05
2023-05-10T13:04:19.504Z,6.20
2023-05-10T13:09:22.533Z,6.28
2023-05-10T13:14:26.961Z,6.60
2023-05-10T13:19:29.881Z,6.22
2023-05-10T13:24:32.848Z,5.78
2023-05-10T13:29:37.489Z,6.47
2023-05-10T13:34:43.361Z,7.40
2023-05-10T13:39:46.380Z,7.30
2023-05-10T13:44:50.774Z,7.40
2023-05-10T13:49:53.780Z,7.22
2023-05-10T13:54:56.997Z,7.43
2023-05-10T14:00:01.448Z,6.60
2023-05-10T14:05:11.221Z,6.85
2023-05-10T14:10:14.103Z,7.25
2023-05-10T14:15:18.655Z,7.22
2023-05-10T14:20:21.638Z,6.80
2023-05-10T14:25:25.306Z,7.00
2023-05-10T14:30:29.532Z,6.93
2023-05-10T14:35:32.990Z,6.55
2023-05-10T14:40:35.866Z,7.05
2023-05-10T14:45:40.035Z,6.20
2023-05-10T14:50:42.877Z,7.07
2023-05-10T14:55:45.624Z,7.13
2023-05-10T15:00:49.744Z,6.68
2023-05-10T15:05:54.030Z,6.88
2023-05-10T15:10:57.290Z,7.20
2023-05-10T15:16:02.048Z,6.28
2023-05-10T15:21:04.948Z,7.00
2023-05-10T15:26:07.841Z,7.28
2023-05-10T15:31:12.211Z,7.13
2023-05-10T15:36:15.159Z,6.30
2023-05-10T15:41:19.134Z,6.63
2023-05-10T15:46:23.871Z,6.68
2023-05-10T15:51:26.902Z,7.32
2023-05-10T15:56:29.815Z,9.80
2023-05-10T16:01:34.086Z,7.40
2023-05-10T16:06:38.204Z,15.10
2023-05-10T16:11:42.099Z,7.45
2023-05-10T16:16:47.629Z,7.40
2023-05-10T16:21:51.273Z,7.95
2023-05-10T16:26:54.476Z,8.00
2023-05-10T16:31:58.660Z,6.63
2023-05-10T16:37:01.417Z,5.93
2023-05-10T16:42:04.396Z,6.28
2023-05-10T16:47:08.747Z,5.32
2023-05-10T16:52:11.662Z,8.98
2023-05-10T16:57:14.605Z,8.18
2023-05-10T17:02:18.809Z,7.22
2023-05-10T17:07:26.132Z,6.90
2023-05-10T17:12:29.276Z,5.65
2023-05-10T17:17:34.299Z,6.97
2023-05-10T17:22:37.217Z,4.85
2023-05-10T17:27:40.450Z,5.72
2023-05-10T17:32:44.746Z,5.13
2023-05-10T17:37:47.749Z,5.88
2023-05-10T17:42:50.635Z,5.38
2023-05-10T17:47:55.011Z,5.70
2023-05-10T17:52:57.988Z,6.80
2023-05-10T17:58:00.998Z,5.93
2023-05-10T18:03:06.317Z,6.10
2023-05-10T18:08:09.762Z,6.35
2023-05-10T18:13:12.774Z,5.28
2023-05-10T18:18:17.648Z,5.07
2023-05-10T18:23:20.944Z,6.78
2023-05-10T18:28:24.437Z,5.90
2023-05-10T18:33:28.625Z,5.95
2023-05-10T18:38:31.808Z,5.68
2023-05-10T18:43:34.870Z,6.47
2023-05-10T18:48:39.264Z,6.95
2023-05-10T18:53:42.053Z,6.88
2023-05-10T18:58:45.504Z,6.63
2023-05-10T19:03:49.764Z,7.00
2023-05-10T19:08:52.675Z,6.45
2023-05-10T19:13:55.576Z,5.63
2023-05-10T19:19:01.214Z,5.03
2023-05-10T19:24:04.518Z,5.07
2023-05-10T19:29:07.718Z,4.60
2023-05-10T19:34:11.935Z,4.38
2023-05-10T19:39:14.822Z,4.78
2023-05-10T19:44:20.581Z,4.72
2023-05-10T19:49:26.481Z,5.30
2023-05-10T19:54:29.945Z,5.53
2023-05-10T19:59:32.760Z,5.50
2023-05-10T20:04:37.119Z,5.80
2023-05-10T20:09:39.992Z,5.85
2023-05-10T20:14:42.744Z,6.28
2023-05-10T20:19:46.925Z,7.13
2023-05-10T20:24:49.738Z,7.20
2023-05-10T20:29:53.159Z,8.20
2023-05-10T20:34:57.410Z,8.13
2023-05-10T20:40:00.235Z,8.23
2023-05-10T20:45:03.310Z,8.38
2023-05-10T20:50:08.708Z,8.63
2023-05-10T20:55:11.504Z,8.40
2023-05-10T21:00:15.597Z,8.38
2023-05-10T21:05:20.008Z,7.88
2023-05-10T21:10:22.831Z,8.40
2023-05-10T21:15:25.930Z,8.27
2023-05-10T21:20:32.384Z,9.38
2023-05-10T21:25:35.168Z,10.00
2023-05-10T21:30:37.880Z,10.07
2023-05-10T21:35:43.000Z,10.38
2023-05-10T21:40:46.163Z,10.75
2023-05-10T21:45:49.007Z,9.80
2023-05-10T21:50:53.260Z,10.20
2023-05-10T21:55:56.283Z,9.98
2023-05-10T22:00:59.134Z,9.93
2023-05-10T22:06:03.328Z,9.60
2023-05-10T22:11:06.192Z,9.77
2023-05-10T22:16:08.951Z,9.57
2023-05-10T22:21:13.083Z,9.43
2023-05-10T22:26:15.885Z,8.73
2023-05-10T22:31:18.741Z,9.48
2023-05-10T22:36:22.960Z,9.20
2023-05-10T22:41:26.293Z,10.02
2023-05-10T22:46:29.598Z,10.75
2023-05-10T22:51:33.857Z,12.88
2023-05-10T22:56:36.650Z,11.57
2023-05-10T23:01:39.497Z,10.60
2023-05-10T23:06:43.611Z,10.48
2023-05-10T23:11:46.415Z,11.20
2023-05-10T23:16:49.115Z,10.48
2023-05-10T23:21:53.200Z,9.95
2023-05-10T23:26:56.019Z,12.00
2023-05-10T23:31:58.796Z,12.27
2023-05-10T23:37:03.130Z,11.38
2023-05-10T23:42:06.417Z,11.13
2023-05-10T23:47:09.326Z,12.38
2023-05-10T23:52:13.982Z,11.38
2023-05-10T23:57:16.775Z,13.00
